sensor_id;sensor_type;location;lat;lon;timestamp;pressure;altitude;pressure_sealevel;temperature;humidity
35655;BME280;21773;50.010;19.972;2023-01-29T00:01:42;99598.06;;;6.33;52.46
35655;BME280;21773;50.010;19.972;2023-01-29T00:04:46;99597.38;;;6.31;52.44
35655;BME280;21773;50.010;19.972;2023-01-29T00:07:50;99590.47;;;6.36;52.33
35655;BME280;21773;50.010;19.972;2023-01-29T00:10:59;99588.47;;;6.38;52.04
35655;BME280;21773;50.010;19.972;2023-01-29T00:14:03;99591.31;;;6.37;51.80
35655;BME280;21773;50.010;19.972;2023-01-29T00:17:07;99594.00;;;6.37;51.78
35655;BME280;21773;50.010;19.972;2023-01-29T00:20:11;99599.19;;;6.38;51.60
35655;BME280;21773;50.010;19.972;2023-01-29T00:23:15;99599.53;;;6.35;51.15
35655;BME280;21773;50.010;19.972;2023-01-29T00:26:20;99605.38;;;6.39;50.82
35655;BME280;21773;50.010;19.972;2023-01-29T00:29:24;99603.88;;;6.36;50.46
35655;BME280;21773;50.010;19.972;2023-01-29T00:32:27;99604.06;;;6.35;50.68
35655;BME280;21773;50.010;19.972;2023-01-29T00:35:32;99606.63;;;6.28;50.13
35655;BME280;21773;50.010;19.972;2023-01-29T00:38:36;99597.81;;;6.20;50.08
35655;BME280;21773;50.010;19.972;2023-01-29T00:41:41;99591.63;;;6.19;50.23
35655;BME280;21773;50.010;19.972;2023-01-29T00:45:03;99597.56;;;6.29;50.08
35655;BME280;21773;50.010;19.972;2023-01-29T00:48:07;99610.78;;;6.31;49.74
35655;BME280;21773;50.010;19.972;2023-01-29T00:51:10;99611.97;;;6.28;49.10
35655;BME280;21773;50.010;19.972;2023-01-29T00:54:13;99613.50;;;6.23;48.93
35655;BME280;21773;50.010;19.972;2023-01-29T00:57:18;99619.69;;;6.23;48.76
35655;BME280;21773;50.010;19.972;2023-01-29T01:00:22;99616.66;;;6.26;48.80
35655;BME280;21773;50.010;19.972;2023-01-29T01:03:25;99610.66;;;6.24;48.41
35655;BME280;21773;50.010;19.972;2023-01-29T01:06:28;99599.13;;;6.24;48.17
35655;BME280;21773;50.010;19.972;2023-01-29T01:09:33;99608.16;;;6.23;48.06
35655;BME280;21773;50.010;19.972;2023-01-29T01:13:05;99614.19;;;6.25;48.26
35655;BME280;21773;50.010;19.972;2023-01-29T01:16:10;99617.69;;;6.25;48.14
35655;BME280;21773;50.010;19.972;2023-01-29T01:19:15;99618.88;;;6.23;48.34
35655;BME280;21773;50.010;19.972;2023-01-29T01:22:18;99611.84;;;6.22;48.47
35655;BME280;21773;50.010;19.972;2023-01-29T01:25:23;99618.19;;;6.21;48.75
35655;BME280;21773;50.010;19.972;2023-01-29T01:28:28;99619.03;;;6.21;48.78
35655;BME280;21773;50.010;19.972;2023-01-29T01:31:32;99618.88;;;6.23;48.79
35655;BME280;21773;50.010;19.972;2023-01-29T01:34:35;99611.19;;;6.20;48.94
35655;BME280;21773;50.010;19.972;2023-01-29T01:37:38;99630.78;;;6.20;49.15
35655;BME280;21773;50.010;19.972;2023-01-29T01:40:44;99620.88;;;6.21;48.84
35655;BME280;21773;50.010;19.972;2023-01-29T01:43:51;99603.72;;;6.07;48.99
35655;BME280;21773;50.010;19.972;2023-01-29T01:46:56;99627.91;;;6.22;48.21
35655;BME280;21773;50.010;19.972;2023-01-29T01:50:07;99636.75;;;6.22;48.08
35655;BME280;21773;50.010;19.972;2023-01-29T01:53:14;99630.47;;;6.15;47.81
35655;BME280;21773;50.010;19.972;2023-01-29T01:56:22;99630.63;;;6.14;47.87
35655;BME280;21773;50.010;19.972;2023-01-29T01:59:28;99627.47;;;6.10;47.37
35655;BME280;21773;50.010;19.972;2023-01-29T02:02:31;99626.97;;;6.06;47.85
35655;BME280;21773;50.010;19.972;2023-01-29T02:05:53;99624.13;;;6.08;47.80
35655;BME280;21773;50.010;19.972;2023-01-29T02:09:18;99617.28;;;6.05;47.55
35655;BME280;21773;50.010;19.972;2023-01-29T02:12:36;99594.84;;;6.06;47.39
35655;BME280;21773;50.010;19.972;2023-01-29T02:15:41;99599.19;;;6.07;47.21
35655;BME280;21773;50.010;19.972;2023-01-29T02:18:48;99600.41;;;6.05;46.94
35655;BME280;21773;50.010;19.972;2023-01-29T02:22:11;99581.88;;;5.95;47.16
35655;BME280;21773;50.010;19.972;2023-01-29T02:25:58;99583.88;;;5.93;47.29
35655;BME280;21773;50.010;19.972;2023-01-29T02:29:11;99579.53;;;5.92;46.85
35655;BME280;21773;50.010;19.972;2023-01-29T02:32:30;99581.03;;;5.95;47.09
35655;BME280;21773;50.010;19.972;2023-01-29T02:35:41;99574.81;;;6.02;47.22
35655;BME280;21773;50.010;19.972;2023-01-29T02:38:56;99573.31;;;6.00;47.37
35655;BME280;21773;50.010;19.972;2023-01-29T02:42:12;99576.94;;;6.07;47.00
35655;BME280;21773;50.010;19.972;2023-01-29T02:45:23;99572.00;;;5.96;47.31
35655;BME280;21773;50.010;19.972;2023-01-29T02:48:39;99570.97;;;5.97;47.32
35655;BME280;21773;50.010;19.972;2023-01-29T02:51:49;99582.41;;;5.91;47.16
35655;BME280;21773;50.010;19.972;2023-01-29T02:54:59;99581.38;;;5.92;47.64
35655;BME280;21773;50.010;19.972;2023-01-29T02:58:10;99579.91;;;5.89;47.46
35655;BME280;21773;50.010;19.972;2023-01-29T03:01:21;99581.06;;;5.87;47.36
35655;BME280;21773;50.010;19.972;2023-01-29T03:04:28;99565.38;;;5.76;47.46
35655;BME280;21773;50.010;19.972;2023-01-29T03:07:34;99574.72;;;5.80;47.49
35655;BME280;21773;50.010;19.972;2023-01-29T03:11:02;99577.72;;;5.77;48.04
35655;BME280;21773;50.010;19.972;2023-01-29T03:14:09;99578.94;;;5.74;48.12
35655;BME280;21773;50.010;19.972;2023-01-29T03:17:17;99581.91;;;5.79;48.25
35655;BME280;21773;50.010;19.972;2023-01-29T03:20:27;99593.63;;;5.78;48.15
35655;BME280;21773;50.010;19.972;2023-01-29T03:23:34;99597.97;;;5.79;48.28
35655;BME280;21773;50.010;19.972;2023-01-29T03:27:00;99592.97;;;5.76;47.83
35655;BME280;21773;50.010;19.972;2023-01-29T03:30:24;99591.47;;;5.74;47.97
35655;BME280;21773;50.010;19.972;2023-01-29T03:34:09;99599.28;;;5.83;47.92
35655;BME280;21773;50.010;19.972;2023-01-29T03:37:20;99603.81;;;5.83;48.03
35655;BME280;21773;50.010;19.972;2023-01-29T03:40:28;99610.81;;;5.84;47.94
35655;BME280;21773;50.010;19.972;2023-01-29T03:43:40;99605.00;;;5.80;47.95
35655;BME280;21773;50.010;19.972;2023-01-29T03:46:51;99608.00;;;5.77;47.85
35655;BME280;21773;50.010;19.972;2023-01-29T03:50:04;99617.38;;;5.73;47.80
35655;BME280;21773;50.010;19.972;2023-01-29T03:53:17;99609.03;;;5.76;47.81
35655;BME280;21773;50.010;19.972;2023-01-29T03:56:33;99593.31;;;5.73;48.07
35655;BME280;21773;50.010;19.972;2023-01-29T03:59:48;99582.97;;;5.70;48.08
35655;BME280;21773;50.010;19.972;2023-01-29T04:03:18;99580.28;;;5.70;47.22
35655;BME280;21773;50.010;19.972;2023-01-29T04:06:26;99587.31;;;5.63;47.58
35655;BME280;21773;50.010;19.972;2023-01-29T04:09:44;99584.66;;;5.63;47.65
35655;BME280;21773;50.010;19.972;2023-01-29T04:12:54;99591.00;;;5.62;47.26
35655;BME280;21773;50.010;19.972;2023-01-29T04:16:00;99586.16;;;5.65;46.97
35655;BME280;21773;50.010;19.972;2023-01-29T04:19:27;99574.09;;;5.70;46.75
35655;BME280;21773;50.010;19.972;2023-01-29T04:22:34;99566.59;;;5.65;46.46
35655;BME280;21773;50.010;19.972;2023-01-29T04:25:44;99565.28;;;5.61;46.42
35655;BME280;21773;50.010;19.972;2023-01-29T04:28:58;99559.63;;;5.56;46.08
35655;BME280;21773;50.010;19.972;2023-01-29T04:32:10;99561.78;;;5.60;45.35
35655;BME280;21773;50.010;19.972;2023-01-29T04:35:27;99566.28;;;5.60;44.82
35655;BME280;21773;50.010;19.972;2023-01-29T04:38:45;99571.16;;;5.48;45.32
35655;BME280;21773;50.010;19.972;2023-01-29T04:41:53;99558.97;;;5.46;45.56
35655;BME280;21773;50.010;19.972;2023-01-29T04:45:02;99549.97;;;5.47;45.64
35655;BME280;21773;50.010;19.972;2023-01-29T04:48:17;99527.44;;;5.33;46.25
35655;BME280;21773;50.010;19.972;2023-01-29T04:51:24;99541.31;;;5.37;46.18
35655;BME280;21773;50.010;19.972;2023-01-29T04:54:43;99535.28;;;5.35;46.44
35655;BME280;21773;50.010;19.972;2023-01-29T04:57:54;99536.31;;;5.26;46.30
35655;BME280;21773;50.010;19.972;2023-01-29T05:01:04;99528.66;;;5.22;46.24
35655;BME280;21773;50.010;19.972;2023-01-29T05:04:12;99527.63;;;5.23;45.94
35655;BME280;21773;50.010;19.972;2023-01-29T05:07:17;99524.31;;;5.21;46.04
35655;BME280;21773;50.010;19.972;2023-01-29T05:10:24;99530.81;;;5.19;45.47
35655;BME280;21773;50.010;19.972;2023-01-29T05:13:29;99520.00;;;5.04;45.61
35655;BME280;21773;50.010;19.972;2023-01-29T05:16:37;99511.84;;;4.98;46.19
35655;BME280;21773;50.010;19.972;2023-01-29T05:19:44;99511.50;;;5.01;45.77
35655;BME280;21773;50.010;19.972;2023-01-29T05:22:48;99514.19;;;4.93;45.47
35655;BME280;21773;50.010;19.972;2023-01-29T05:25:55;99523.56;;;4.89;45.91
35655;BME280;21773;50.010;19.972;2023-01-29T05:28:58;99520.38;;;4.93;46.26
35655;BME280;21773;50.010;19.972;2023-01-29T05:32:01;99532.56;;;4.79;46.87
35655;BME280;21773;50.010;19.972;2023-01-29T05:35:05;99539.94;;;4.77;47.41
35655;BME280;21773;50.010;19.972;2023-01-29T05:38:09;99523.41;;;4.66;47.25
35655;BME280;21773;50.010;19.972;2023-01-29T05:41:13;99539.75;;;4.79;46.93
35655;BME280;21773;50.010;19.972;2023-01-29T05:44:18;99547.13;;;4.77;46.74
35655;BME280;21773;50.010;19.972;2023-01-29T05:47:21;99552.47;;;4.77;47.05
35655;BME280;21773;50.010;19.972;2023-01-29T05:50:25;99556.63;;;4.79;46.32
35655;BME280;21773;50.010;19.972;2023-01-29T05:53:30;99561.13;;;4.79;45.70
35655;BME280;21773;50.010;19.972;2023-01-29T05:56:35;99568.66;;;4.84;46.25
35655;BME280;21773;50.010;19.972;2023-01-29T05:59:39;99557.31;;;4.57;46.36
35655;BME280;21773;50.010;19.972;2023-01-29T06:02:42;99576.34;;;4.54;46.78
35655;BME280;21773;50.010;19.972;2023-01-29T06:05:45;99570.50;;;4.59;46.77
35655;BME280;21773;50.010;19.972;2023-01-29T06:08:49;99582.16;;;4.50;46.70
35655;BME280;21773;50.010;19.972;2023-01-29T06:11:54;99585.84;;;4.49;46.67
35655;BME280;21773;50.010;19.972;2023-01-29T06:14:57;99571.66;;;4.48;46.94
35655;BME280;21773;50.010;19.972;2023-01-29T06:18:00;99582.16;;;4.42;46.78
35655;BME280;21773;50.010;19.972;2023-01-29T06:21:06;99594.16;;;4.46;46.37
35655;BME280;21773;50.010;19.972;2023-01-29T06:24:10;99575.81;;;4.43;45.69
35655;BME280;21773;50.010;19.972;2023-01-29T06:27:15;99592.69;;;4.43;45.64
35655;BME280;21773;50.010;19.972;2023-01-29T06:30:19;99584.66;;;4.43;45.04
35655;BME280;21773;50.010;19.972;2023-01-29T06:33:22;99592.69;;;4.51;44.94
35655;BME280;21773;50.010;19.972;2023-01-29T06:36:26;99589.84;;;4.53;44.70
35655;BME280;21773;50.010;19.972;2023-01-29T06:39:29;99593.84;;;4.49;44.56
35655;BME280;21773;50.010;19.972;2023-01-29T06:42:35;99598.53;;;4.63;44.76
35655;BME280;21773;50.010;19.972;2023-01-29T06:45:45;99600.03;;;4.49;44.38
35655;BME280;21773;50.010;19.972;2023-01-29T06:48:49;99608.69;;;4.51;44.70
35655;BME280;21773;50.010;19.972;2023-01-29T06:51:52;99613.34;;;4.41;44.59
35655;BME280;21773;50.010;19.972;2023-01-29T06:54:55;99606.34;;;4.40;44.63
35655;BME280;21773;50.010;19.972;2023-01-29T06:58:03;99602.53;;;4.51;44.32
35655;BME280;21773;50.010;19.972;2023-01-29T07:01:08;99604.19;;;4.44;43.92
35655;BME280;21773;50.010;19.972;2023-01-29T07:04:26;99599.19;;;4.49;43.73
35655;BME280;21773;50.010;19.972;2023-01-29T07:07:29;99604.03;;;4.53;43.82
35655;BME280;21773;50.010;19.972;2023-01-29T07:10:33;99603.03;;;4.62;43.65
35655;BME280;21773;50.010;19.972;2023-01-29T07:13:37;99610.91;;;4.64;43.35
35655;BME280;21773;50.010;19.972;2023-01-29T07:16:41;99610.72;;;4.57;43.03
35655;BME280;21773;50.010;19.972;2023-01-29T07:19:44;99616.22;;;4.56;43.01
35655;BME280;21773;50.010;19.972;2023-01-29T07:22:47;99615.38;;;4.55;42.65
35655;BME280;21773;50.010;19.972;2023-01-29T07:25:51;99617.06;;;4.56;42.43
35655;BME280;21773;50.010;19.972;2023-01-29T07:28:55;99613.53;;;4.56;42.22
35655;BME280;21773;50.010;19.972;2023-01-29T07:31:59;99601.72;;;4.58;42.16
35655;BME280;21773;50.010;19.972;2023-01-29T07:35:03;99608.69;;;4.43;41.26
35655;BME280;21773;50.010;19.972;2023-01-29T07:38:07;99620.88;;;4.46;41.64
35655;BME280;21773;50.010;19.972;2023-01-29T07:41:11;99624.38;;;4.38;41.93
35655;BME280;21773;50.010;19.972;2023-01-29T07:44:20;99620.72;;;4.39;42.19
35655;BME280;21773;50.010;19.972;2023-01-29T07:47:23;99628.88;;;4.46;41.75
35655;BME280;21773;50.010;19.972;2023-01-29T07:50:26;99632.06;;;4.49;42.15
35655;BME280;21773;50.010;19.972;2023-01-29T07:53:30;99635.44;;;4.59;42.33
35655;BME280;21773;50.010;19.972;2023-01-29T07:56:33;99645.28;;;4.59;42.32
35655;BME280;21773;50.010;19.972;2023-01-29T07:59:38;99645.25;;;4.43;42.29
35655;BME280;21773;50.010;19.972;2023-01-29T08:02:41;99653.59;;;4.48;42.23
35655;BME280;21773;50.010;19.972;2023-01-29T08:05:45;99622.88;;;4.52;42.49
35655;BME280;21773;50.010;19.972;2023-01-29T08:08:49;99654.47;;;4.89;42.24
35655;BME280;21773;50.010;19.972;2023-01-29T08:11:53;99640.59;;;5.01;42.32
35655;BME280;21773;50.010;19.972;2023-01-29T08:14:57;99649.09;;;5.29;41.78
35655;BME280;21773;50.010;19.972;2023-01-29T08:18:01;99656.38;;;5.59;41.38
35655;BME280;21773;50.010;19.972;2023-01-29T08:21:04;99669.16;;;5.96;39.84
35655;BME280;21773;50.010;19.972;2023-01-29T08:24:08;99672.13;;;6.48;38.91
35655;BME280;21773;50.010;19.972;2023-01-29T08:27:11;99679.53;;;7.81;37.15
35655;BME280;21773;50.010;19.972;2023-01-29T08:30:16;99683.38;;;8.52;35.18
35655;BME280;21773;50.010;19.972;2023-01-29T08:33:19;99681.03;;;8.85;34.74
35655;BME280;21773;50.010;19.972;2023-01-29T08:36:37;99690.59;;;9.09;33.69
35655;BME280;21773;50.010;19.972;2023-01-29T08:39:41;99690.91;;;8.99;33.85
35655;BME280;21773;50.010;19.972;2023-01-29T08:42:45;99696.09;;;9.01;34.58
35655;BME280;21773;50.010;19.972;2023-01-29T08:45:49;99699.22;;;9.04;34.72
35655;BME280;21773;50.010;19.972;2023-01-29T08:48:52;99690.34;;;9.04;33.93
35655;BME280;21773;50.010;19.972;2023-01-29T08:51:56;99679.91;;;9.16;33.72
35655;BME280;21773;50.010;19.972;2023-01-29T08:55:00;99669.13;;;9.65;33.60
35655;BME280;21773;50.010;19.972;2023-01-29T08:58:03;99673.53;;;10.48;33.16
35655;BME280;21773;50.010;19.972;2023-01-29T09:01:11;99674.72;;;11.12;31.69
35655;BME280;21773;50.010;19.972;2023-01-29T09:04:14;99652.28;;;11.12;31.52
35655;BME280;21773;50.010;19.972;2023-01-29T09:07:27;99664.72;;;10.93;31.67
35655;BME280;21773;50.010;19.972;2023-01-29T09:10:31;99666.78;;;10.78;31.27
35655;BME280;21773;50.010;19.972;2023-01-29T09:13:34;99654.19;;;12.35;29.67
35655;BME280;21773;50.010;19.972;2023-01-29T09:16:39;99648.34;;;12.44;29.72
35655;BME280;21773;50.010;19.972;2023-01-29T09:19:42;99644.25;;;14.15;27.20
35655;BME280;21773;50.010;19.972;2023-01-29T09:22:46;99657.47;;;15.73;24.91
35655;BME280;21773;50.010;19.972;2023-01-29T09:25:50;99670.78;;;16.09;24.34
35655;BME280;21773;50.010;19.972;2023-01-29T09:28:54;99670.81;;;15.86;24.58
35655;BME280;21773;50.010;19.972;2023-01-29T09:31:58;99657.72;;;15.30;25.19
35655;BME280;21773;50.010;19.972;2023-01-29T09:35:02;99654.72;;;14.30;26.00
35655;BME280;21773;50.010;19.972;2023-01-29T09:38:05;99643.16;;;13.12;27.40
35655;BME280;21773;50.010;19.972;2023-01-29T09:41:22;99638.50;;;12.05;28.99
35655;BME280;21773;50.010;19.972;2023-01-29T09:44:43;99636.53;;;11.28;30.16
35655;BME280;21773;50.010;19.972;2023-01-29T09:47:50;99624.78;;;10.42;31.48
35655;BME280;21773;50.010;19.972;2023-01-29T09:50:55;99623.88;;;9.88;32.72
35655;BME280;21773;50.010;19.972;2023-01-29T09:54:08;99620.47;;;9.38;33.61
35655;BME280;21773;50.010;19.972;2023-01-29T09:57:23;99613.44;;;8.67;34.57
35655;BME280;21773;50.010;19.972;2023-01-29T10:00:33;99605.41;;;8.16;35.20
35655;BME280;21773;50.010;19.972;2023-01-29T10:03:54;99605.19;;;7.82;36.43
35655;BME280;21773;50.010;19.972;2023-01-29T10:07:16;99596.41;;;7.44;37.38
35655;BME280;21773;50.010;19.972;2023-01-29T10:10:38;99595.06;;;7.11;37.96
35655;BME280;21773;50.010;19.972;2023-01-29T10:13:53;99600.50;;;6.88;38.21
35655;BME280;21773;50.010;19.972;2023-01-29T10:17:11;99594.97;;;6.67;39.04
35655;BME280;21773;50.010;19.972;2023-01-29T10:20:42;99594.91;;;6.29;39.49
35655;BME280;21773;50.010;19.972;2023-01-29T10:23:52;99581.81;;;6.03;40.40
35655;BME280;21773;50.010;19.972;2023-01-29T10:27:00;99589.22;;;5.93;41.05
35655;BME280;21773;50.010;19.972;2023-01-29T10:30:07;99588.09;;;5.88;41.06
35655;BME280;21773;50.010;19.972;2023-01-29T10:33:16;99581.28;;;5.69;41.30
35655;BME280;21773;50.010;19.972;2023-01-29T10:36:24;99565.25;;;5.69;41.61
35655;BME280;21773;50.010;19.972;2023-01-29T10:39:29;99561.63;;;5.54;42.31
35655;BME280;21773;50.010;19.972;2023-01-29T10:42:39;99547.53;;;5.21;43.45
35655;BME280;21773;50.010;19.972;2023-01-29T10:45:53;99542.66;;;5.24;43.23
35655;BME280;21773;50.010;19.972;2023-01-29T10:49:11;99536.69;;;5.14;43.64
35655;BME280;21773;50.010;19.972;2023-01-29T10:52:31;99533.69;;;5.17;43.46
35655;BME280;21773;50.010;19.972;2023-01-29T10:55:45;99511.09;;;5.20;43.62
35655;BME280;21773;50.010;19.972;2023-01-29T10:58:56;99500.63;;;5.10;43.63
35655;BME280;21773;50.010;19.972;2023-01-29T11:02:01;99498.47;;;5.06;43.69
35655;BME280;21773;50.010;19.972;2023-01-29T11:05:15;99485.06;;;5.22;43.34
35655;BME280;21773;50.010;19.972;2023-01-29T11:08:25;99496.84;;;5.36;43.17
35655;BME280;21773;50.010;19.972;2023-01-29T11:11:34;99484.78;;;5.40;42.51
35655;BME280;21773;50.010;19.972;2023-01-29T11:14:44;99473.59;;;5.67;41.42
35655;BME280;21773;50.010;19.972;2023-01-29T11:18:03;99454.50;;;5.78;40.88
35655;BME280;21773;50.010;19.972;2023-01-29T11:21:06;99438.69;;;5.91;40.80
35655;BME280;21773;50.010;19.972;2023-01-29T11:24:13;99438.88;;;6.13;40.52
35655;BME280;21773;50.010;19.972;2023-01-29T11:27:22;99449.38;;;5.99;40.14
35655;BME280;21773;50.010;19.972;2023-01-29T11:30:32;99441.19;;;5.70;40.83
35655;BME280;21773;50.010;19.972;2023-01-29T11:33:37;99442.56;;;5.58;40.63
35655;BME280;21773;50.010;19.972;2023-01-29T11:36:40;99435.19;;;5.37;41.14
35655;BME280;21773;50.010;19.972;2023-01-29T11:39:47;99428.38;;;5.27;41.85
35655;BME280;21773;50.010;19.972;2023-01-29T11:42:51;99419.38;;;5.19;42.12
35655;BME280;21773;50.010;19.972;2023-01-29T11:45:57;99403.44;;;5.03;41.89
35655;BME280;21773;50.010;19.972;2023-01-29T11:49:02;99423.41;;;5.15;41.96
35655;BME280;21773;50.010;19.972;2023-01-29T11:52:23;99400.63;;;5.81;40.85
35655;BME280;21773;50.010;19.972;2023-01-29T11:55:30;99401.66;;;6.84;38.59
35655;BME280;21773;50.010;19.972;2023-01-29T11:58:52;99402.94;;;7.18;37.27
35655;BME280;21773;50.010;19.972;2023-01-29T12:02:03;99400.66;;;7.00;37.26
35655;BME280;21773;50.010;19.972;2023-01-29T12:05:14;99398.47;;;6.89;38.19
35655;BME280;21773;50.010;19.972;2023-01-29T12:08:18;99391.44;;;6.88;38.27
35655;BME280;21773;50.010;19.972;2023-01-29T12:11:27;99382.19;;;6.76;38.43
35655;BME280;21773;50.010;19.972;2023-01-29T12:14:32;99371.19;;;6.71;38.71
35655;BME280;21773;50.010;19.972;2023-01-29T12:17:38;99388.47;;;6.68;38.62
35655;BME280;21773;50.010;19.972;2023-01-29T12:20:46;99378.38;;;6.56;38.33
35655;BME280;21773;50.010;19.972;2023-01-29T12:23:58;99321.63;;;5.93;37.77
35655;BME280;21773;50.010;19.972;2023-01-29T12:27:10;99386.63;;;6.17;38.02
35655;BME280;21773;50.010;19.972;2023-01-29T12:30:23;99391.34;;;6.15;38.58
35655;BME280;21773;50.010;19.972;2023-01-29T12:33:37;99393.56;;;5.88;38.72
35655;BME280;21773;50.010;19.972;2023-01-29T12:36:45;99399.94;;;5.87;38.44
35655;BME280;21773;50.010;19.972;2023-01-29T12:39:54;99396.91;;;5.90;38.53
35655;BME280;21773;50.010;19.972;2023-01-29T12:43:03;99398.97;;;5.80;38.90
35655;BME280;21773;50.010;19.972;2023-01-29T12:46:11;99379.69;;;5.62;39.73
35655;BME280;21773;50.010;19.972;2023-01-29T12:49:23;99397.66;;;5.76;39.68
35655;BME280;21773;50.010;19.972;2023-01-29T12:52:36;99384.59;;;5.81;39.78
35655;BME280;21773;50.010;19.972;2023-01-29T12:55:43;99393.31;;;5.75;39.93
35655;BME280;21773;50.010;19.972;2023-01-29T12:58:52;99399.97;;;5.56;39.99
35655;BME280;21773;50.010;19.972;2023-01-29T13:01:59;99394.97;;;5.53;40.21
35655;BME280;21773;50.010;19.972;2023-01-29T13:05:17;99396.28;;;5.57;40.30
35655;BME280;21773;50.010;19.972;2023-01-29T13:08:25;99388.06;;;5.59;40.50
35655;BME280;21773;50.010;19.972;2023-01-29T13:11:35;99379.88;;;5.60;40.44
35655;BME280;21773;50.010;19.972;2023-01-29T13:14:46;99382.09;;;5.57;40.49
35655;BME280;21773;50.010;19.972;2023-01-29T13:17:54;99377.78;;;5.48;39.64
35655;BME280;21773;50.010;19.972;2023-01-29T13:21:00;99356.81;;;5.59;39.84
35655;BME280;21773;50.010;19.972;2023-01-29T13:24:08;99370.31;;;5.66;39.97
35655;BME280;21773;50.010;19.972;2023-01-29T13:27:20;99362.66;;;5.86;39.90
35655;BME280;21773;50.010;19.972;2023-01-29T13:30:27;99349.81;;;5.81;39.99
35655;BME280;21773;50.010;19.972;2023-01-29T13:33:31;99361.31;;;5.82;39.93
35655;BME280;21773;50.010;19.972;2023-01-29T13:36:36;99351.94;;;5.86;39.95
35655;BME280;21773;50.010;19.972;2023-01-29T13:39:47;99358.16;;;5.78;39.53
35655;BME280;21773;50.010;19.972;2023-01-29T13:42:52;99357.16;;;5.79;39.57
35655;BME280;21773;50.010;19.972;2023-01-29T13:45:57;99358.94;;;5.64;39.51
35655;BME280;21773;50.010;19.972;2023-01-29T13:49:23;99369.66;;;5.64;39.99
35655;BME280;21773;50.010;19.972;2023-01-29T13:52:35;99366.91;;;5.49;40.19
35655;BME280;21773;50.010;19.972;2023-01-29T13:55:41;99346.97;;;5.37;40.38
35655;BME280;21773;50.010;19.972;2023-01-29T13:58:55;99351.69;;;5.27;40.90
35655;BME280;21773;50.010;19.972;2023-01-29T14:02:19;99352.47;;;5.36;40.95
35655;BME280;21773;50.010;19.972;2023-01-29T14:05:38;99351.41;;;5.45;40.82
35655;BME280;21773;50.010;19.972;2023-01-29T14:08:43;99365.16;;;5.42;40.54
35655;BME280;21773;50.010;19.972;2023-01-29T14:11:48;99362.09;;;5.45;40.35
35655;BME280;21773;50.010;19.972;2023-01-29T14:15:02;99360.41;;;5.52;40.14
35655;BME280;21773;50.010;19.972;2023-01-29T14:18:26;99365.00;;;5.35;39.89
35655;BME280;21773;50.010;19.972;2023-01-29T14:21:31;99348.28;;;5.33;40.01
35655;BME280;21773;50.010;19.972;2023-01-29T14:24:35;99351.34;;;5.30;39.80
35655;BME280;21773;50.010;19.972;2023-01-29T14:27:39;99345.53;;;5.27;40.33
35655;BME280;21773;50.010;19.972;2023-01-29T14:30:49;99335.34;;;5.22;40.37
35655;BME280;21773;50.010;19.972;2023-01-29T14:33:59;99342.72;;;5.20;40.74
35655;BME280;21773;50.010;19.972;2023-01-29T14:37:19;99337.28;;;5.05;40.76
35655;BME280;21773;50.010;19.972;2023-01-29T14:40:25;99347.34;;;5.03;40.67
35655;BME280;21773;50.010;19.972;2023-01-29T14:43:30;99345.66;;;5.02;40.71
35655;BME280;21773;50.010;19.972;2023-01-29T14:46:42;99338.50;;;4.95;40.82
35655;BME280;21773;50.010;19.972;2023-01-29T14:49:52;99343.06;;;4.86;40.87
35655;BME280;21773;50.010;19.972;2023-01-29T14:53:00;99338.63;;;4.70;41.49
35655;BME280;21773;50.010;19.972;2023-01-29T14:56:11;99341.84;;;4.58;41.31
35655;BME280;21773;50.010;19.972;2023-01-29T14:59:20;99329.97;;;4.60;41.43
35655;BME280;21773;50.010;19.972;2023-01-29T15:02:36;99338.50;;;4.64;41.74
35655;BME280;21773;50.010;19.972;2023-01-29T15:05:43;99338.06;;;4.44;42.05
35655;BME280;21773;50.010;19.972;2023-01-29T15:08:54;99334.72;;;4.42;42.06
35655;BME280;21773;50.010;19.972;2023-01-29T15:12:05;99325.75;;;4.27;42.32
35655;BME280;21773;50.010;19.972;2023-01-29T15:15:16;99316.44;;;4.15;42.47
35655;BME280;21773;50.010;19.972;2023-01-29T15:18:27;99317.94;;;4.01;42.80
35655;BME280;21773;50.010;19.972;2023-01-29T15:21:35;99313.94;;;4.13;43.09
35655;BME280;21773;50.010;19.972;2023-01-29T15:24:39;99314.16;;;3.96;43.15
35655;BME280;21773;50.010;19.972;2023-01-29T15:27:44;99311.00;;;3.84;43.27
35655;BME280;21773;50.010;19.972;2023-01-29T15:30:51;99308.00;;;3.71;43.71
35655;BME280;21773;50.010;19.972;2023-01-29T15:33:56;99301.69;;;3.56;43.89
35655;BME280;21773;50.010;19.972;2023-01-29T15:37:00;99288.03;;;3.51;44.16
35655;BME280;21773;50.010;19.972;2023-01-29T15:40:13;99285.34;;;3.51;44.22
35655;BME280;21773;50.010;19.972;2023-01-29T15:43:21;99285.69;;;3.56;44.30
35655;BME280;21773;50.010;19.972;2023-01-29T15:46:26;99289.19;;;3.56;44.25
35655;BME280;21773;50.010;19.972;2023-01-29T15:49:33;99291.19;;;3.46;44.82
35655;BME280;21773;50.010;19.972;2023-01-29T15:52:39;99294.00;;;3.53;44.68
35655;BME280;21773;50.010;19.972;2023-01-29T15:55:43;99299.31;;;3.53;44.81
35655;BME280;21773;50.010;19.972;2023-01-29T15:58:47;99295.66;;;3.54;44.71
35655;BME280;21773;50.010;19.972;2023-01-29T16:01:51;99292.81;;;3.47;45.02
35655;BME280;21773;50.010;19.972;2023-01-29T16:04:55;99284.69;;;3.40;44.99
35655;BME280;21773;50.010;19.972;2023-01-29T16:08:00;99286.34;;;3.41;44.96
35655;BME280;21773;50.010;19.972;2023-01-29T16:11:06;99284.50;;;3.50;45.22
35655;BME280;21773;50.010;19.972;2023-01-29T16:14:12;99278.00;;;3.53;45.14
35655;BME280;21773;50.010;19.972;2023-01-29T16:17:25;99292.50;;;3.50;45.05
35655;BME280;21773;50.010;19.972;2023-01-29T16:20:32;99281.16;;;3.48;44.86
35655;BME280;21773;50.010;19.972;2023-01-29T16:23:43;99281.34;;;3.55;45.02
35655;BME280;21773;50.010;19.972;2023-01-29T16:26:48;99294.31;;;3.58;44.96
35655;BME280;21773;50.010;19.972;2023-01-29T16:29:53;99275.69;;;3.49;45.06
35655;BME280;21773;50.010;19.972;2023-01-29T16:33:01;99294.00;;;3.61;44.93
35655;BME280;21773;50.010;19.972;2023-01-29T16:36:10;99300.16;;;3.53;44.93
35655;BME280;21773;50.010;19.972;2023-01-29T16:39:19;99302.19;;;3.51;45.30